Time,TemperatureF,DewpointF,PressureIn,WindDirection,WindDirectionDegrees,WindSpeedMPH,WindSpeedGustMPH,Humidity,HourlyPrecipIn,Conditions,Clouds,dailyrainin,SolarRadiationWatts/m^2,SoftwareType,DateUTC
2013-02-01 00:06:00,22.2,19.0,30.18,NW,315,0.0,3.0,87,0.00,,,0.00,0,weatherlink.com 1.10,2013-02-01 07:06:00,
2013-02-01 00:21:00,22.0,19.0,30.17,NW,315,0.0,3.0,89,0.00,,,0.00,0,weatherlink.com 1.10,2013-02-01 07:21:00,
2013-02-01 00:36:00,22.4,20.0,30.17,NW,315,0.0,2.0,89,0.00,,,0.00,0,weatherlink.com 1.10,2013-02-01 07:36:00,
2013-02-01 00:51:00,23.3,21.0,30.16,NW,315,1.0,3.0,89,0.00,,,0.00,0,weatherlink.com 1.10,2013-02-01 07:51:00,
2013-02-01 01:06:00,22.8,19.0,30.17,WNW,293,0.0,4.0,86,0.00,,,0.00,0,weatherlink.com 1.10,2013-02-01 08:06:00,
2013-02-01 01:21:00,24.0,21.0,30.16,WNW,287,0.0,7.0,89,0.00,,,0.00,0,weatherlink.com 1.10,2013-02-01 08:21:00,
2013-02-01 01:36:00,26.4,23.0,30.17,NW,321,0.0,7.0,85,0.00,,,0.00,0,weatherlink.com 1.10,2013-02-01 08:36:00,
2013-02-01 01:51:00,26.3,21.0,30.16,ENE,59,0.0,2.0,81,0.00,,,0.00,0,weatherlink.com 1.10,2013-02-01 08:51:00,
2013-02-01 02:06:00,25.5,20.0,30.16,North,5,0.0,2.0,81,0.00,,,0.00,0,weatherlink.com 1.10,2013-02-01 09:06:00,
2013-02-01 02:21:00,24.8,20.0,30.15,NW,314,0.0,5.0,82,0.00,,,0.00,0,weatherlink.com 1.10,2013-02-01 09:21:00,
2013-02-01 02:36:00,24.7,20.0,30.15,NW,314,0.0,2.0,82,0.00,,,0.00,0,weatherlink.com 1.10,2013-02-01 09:36:00,
2013-02-01 02:51:00,24.1,20.0,30.15,NW,313,1.0,4.0,83,0.00,,,0.00,0,weatherlink.com 1.10,2013-02-01 09:51:00,
2013-02-01 03:06:00,23.3,19.0,30.15,NW,313,1.0,2.0,84,0.00,,,0.00,0,weatherlink.com 1.10,2013-02-01 10:06:00,
2013-02-01 03:21:00,22.7,19.0,30.15,NW,313,1.0,3.0,85,0.00,,,0.00,0,weatherlink.com 1.10,2013-02-01 10:21:00,
2013-02-01 03:36:00,22.6,19.0,30.15,NW,313,0.0,2.0,84,0.00,,,0.00,0,weatherlink.com 1.10,2013-02-01 10:36:00,
2013-02-01 03:51:00,22.0,18.0,30.15,NW,313,0.0,0.0,84,0.00,,,0.00,0,weatherlink.com 1.10,2013-02-01 10:51:00,
2013-02-01 04:06:00,21.6,18.0,30.15,NW,313,0.0,2.0,85,0.00,,,0.00,0,weatherlink.com 1.10,2013-02-01 11:06:00,
2013-02-01 04:21:00,21.0,18.0,30.15,SSW,211,0.0,2.0,86,0.00,,,0.00,0,weatherlink.com 1.10,2013-02-01 11:21:00,
2013-02-01 04:36:00,20.5,17.0,30.15,SSW,211,0.0,0.0,86,0.00,,,0.00,0,weatherlink.com 1.10,2013-02-01 11:36:00,
2013-02-01 04:51:00,20.3,17.0,30.15,SSW,211,0.0,2.0,87,0.00,,,0.00,0,weatherlink.com 1.10,2013-02-01 11:51:00,
2013-02-01 05:06:00,20.2,17.0,30.15,SSW,211,0.0,0.0,88,0.00,,,0.00,0,weatherlink.com 1.10,2013-02-01 12:06:00,
2013-02-01 05:21:00,20.2,17.0,30.15,SSW,211,0.0,2.0,88,0.00,,,0.00,0,weatherlink.com 1.10,2013-02-01 12:21:00,
2013-02-01 05:36:00,20.4,17.0,30.15,SSW,211,1.0,2.0,88,0.00,,,0.00,0,weatherlink.com 1.10,2013-02-01 12:36:00,
2013-02-01 05:52:00,20.0,17.0,30.15,SSW,211,0.0,2.0,88,0.00,,,0.00,0,weatherlink.com 1.10,2013-02-01 12:52:00,
2013-02-01 06:36:00,20.2,17.0,30.15,SSW,211,0.0,0.0,88,0.00,,,0.00,0,weatherlink.com 1.10,2013-02-01 13:36:00,
2013-02-01 06:51:00,20.3,17.0,30.15,SSW,209,0.0,0.0,88,0.00,,,0.00,0,weatherlink.com 1.10,2013-02-01 13:51:00,
2013-02-01 07:06:00,19.9,17.0,30.16,WNW,293,0.0,4.0,87,0.00,,,0.00,0,weatherlink.com 1.10,2013-02-01 14:06:00,
2013-02-01 07:21:00,20.0,17.0,30.16,South,173,0.0,3.0,87,0.00,,,0.00,5,weatherlink.com 1.10,2013-02-01 14:21:00,
2013-02-01 07:36:00,20.1,17.0,30.16,WSW,258,0.0,3.0,88,0.00,,,0.00,11,weatherlink.com 1.10,2013-02-01 14:36:00,
2013-02-01 07:51:00,20.3,17.0,30.17,WSW,258,0.0,0.0,88,0.00,,,0.00,14,weatherlink.com 1.10,2013-02-01 14:51:00,
2013-02-01 08:09:00,21.5,19.0,30.18,West,268,0.0,3.0,88,0.00,,,0.00,23,weatherlink.com 1.10,2013-02-01 15:09:00,
2013-02-01 08:22:00,23.0,20.0,30.18,WNW,288,3.0,6.0,88,0.00,,,0.00,26,weatherlink.com 1.10,2013-02-01 15:22:00,
2013-02-01 08:37:00,25.6,21.0,30.17,WNW,284,0.0,6.0,84,0.00,,,0.00,37,weatherlink.com 1.10,2013-02-01 15:37:00,
2013-02-01 08:52:00,28.4,23.0,30.17,NW,307,1.0,4.0,80,0.00,,,0.00,84,weatherlink.com 1.10,2013-02-01 15:52:00,
2013-02-01 09:07:00,29.7,23.0,30.18,WNW,301,0.0,5.0,77,0.00,,,0.00,204,weatherlink.com 1.10,2013-02-01 16:07:00,
2013-02-01 09:22:00,32.2,25.0,30.16,NW,309,2.0,4.0,75,0.01,,,0.01,292,weatherlink.com 1.10,2013-02-01 16:22:00,
2013-02-01 09:37:00,34.6,26.0,30.16,NW,311,3.0,4.0,72,0.01,,,0.01,343,weatherlink.com 1.10,2013-02-01 16:37:00,
2013-02-01 09:52:00,36.3,26.0,30.16,NW,311,0.0,3.0,67,0.01,,,0.01,380,weatherlink.com 1.10,2013-02-01 16:52:00,
2013-02-01 10:07:00,39.4,27.0,30.16,NW,311,0.0,1.0,62,0.01,,,0.01,413,weatherlink.com 1.10,2013-02-01 17:07:00,
2013-02-01 10:22:00,40.7,26.0,30.16,NW,312,0.0,2.0,57,0.00,,,0.01,436,weatherlink.com 1.10,2013-02-01 17:22:00,
2013-02-01 10:37:00,42.3,26.0,30.15,South,178,3.0,5.0,53,0.00,,,0.01,186,weatherlink.com 1.10,2013-02-01 17:37:00,
2013-02-01 10:52:00,42.8,27.0,30.14,SSE,148,1.0,5.0,53,0.00,,,0.01,631,weatherlink.com 1.10,2013-02-01 17:52:00,
2013-02-01 11:07:00,43.6,27.0,30.13,South,177,3.0,6.0,52,0.00,,,0.01,202,weatherlink.com 1.10,2013-02-01 18:07:00,
2013-02-01 11:22:00,43.2,25.0,30.13,SE,143,4.0,5.0,49,0.00,,,0.01,218,weatherlink.com 1.10,2013-02-01 18:22:00,
2013-02-01 11:37:00,42.8,25.0,30.12,South,173,3.0,8.0,50,0.00,,,0.01,285,weatherlink.com 1.10,2013-02-01 18:37:00,
2013-02-01 11:52:00,43.4,25.0,30.12,South,171,2.0,6.0,49,0.00,,,0.01,229,weatherlink.com 1.10,2013-02-01 18:52:00,
2013-02-01 12:07:00,43.5,25.0,30.11,SSE,154,0.0,3.0,49,0.00,,,0.01,188,weatherlink.com 1.10,2013-02-01 19:07:00,
2013-02-01 12:22:00,46.8,27.0,30.11,SSE,157,2.0,5.0,46,0.00,,,0.01,406,weatherlink.com 1.10,2013-02-01 19:22:00,
2013-02-01 12:37:00,45.9,26.0,30.09,South,172,1.0,6.0,46,0.00,,,0.01,250,weatherlink.com 1.10,2013-02-01 19:37:00,
2013-02-01 12:54:00,46.4,24.0,30.09,NNW,329,3.0,8.0,41,0.00,,,0.01,200,weatherlink.com 1.10,2013-02-01 19:54:00,
2013-02-01 13:08:00,49.0,22.0,30.08,WNW,298,6.0,18.0,34,0.00,,,0.01,580,weatherlink.com 1.10,2013-02-01 20:08:00,
2013-02-01 13:23:00,47.9,21.0,30.08,NW,309,11.0,12.0,35,0.00,,,0.01,543,weatherlink.com 1.10,2013-02-01 20:23:00,
2013-02-01 13:38:00,48.8,21.0,30.07,WNW,291,5.0,23.0,33,0.00,,,0.01,519,weatherlink.com 1.10,2013-02-01 20:38:00,
2013-02-01 13:53:00,48.3,20.0,30.07,WSW,253,8.0,23.0,33,0.00,,,0.01,490,weatherlink.com 1.10,2013-02-01 20:53:00,
2013-02-01 14:08:00,47.5,21.0,30.09,West,267,13.0,13.0,35,0.00,,,0.01,462,weatherlink.com 1.10,2013-02-01 21:08:00,
2013-02-01 14:23:00,46.9,22.0,30.09,WNW,300,5.0,13.0,38,0.00,,,0.01,436,weatherlink.com 1.10,2013-02-01 21:23:00,
2013-02-01 14:38:00,46.1,23.0,30.09,West,271,6.0,10.0,41,0.00,,,0.01,406,weatherlink.com 1.10,2013-02-01 21:38:00,
2013-02-01 14:53:00,45.6,24.0,30.10,West,281,4.0,13.0,42,0.00,,,0.01,383,weatherlink.com 1.10,2013-02-01 21:53:00,
2013-02-01 15:08:00,45.7,24.0,30.10,WNW,296,4.0,10.0,43,0.00,,,0.01,338,weatherlink.com 1.10,2013-02-01 22:08:00,
2013-02-01 15:23:00,45.7,23.0,30.11,NW,315,6.0,10.0,41,0.00,,,0.01,339,weatherlink.com 1.10,2013-02-01 22:23:00,
2013-02-01 15:38:00,45.8,24.0,30.12,NW,320,4.0,11.0,43,0.00,,,0.01,288,weatherlink.com 1.10,2013-02-01 22:38:00,
2013-02-01 15:53:00,45.8,23.0,30.12,WNW,297,4.0,11.0,40,0.00,,,0.01,202,weatherlink.com 1.10,2013-02-01 22:53:00,
2013-02-01 16:08:00,45.5,22.0,30.12,WNW,290,5.0,13.0,40,0.00,,,0.01,148,weatherlink.com 1.10,2013-02-01 23:08:00,
2013-02-01 16:23:00,43.9,25.0,30.13,WNW,288,3.0,9.0,47,0.00,,,0.01,100,weatherlink.com 1.10,2013-02-01 23:23:00,
2013-02-01 16:38:00,42.5,24.0,30.13,WNW,298,3.0,6.0,49,0.00,,,0.01,23,weatherlink.com 1.10,2013-02-01 23:38:00,
2013-02-01 16:53:00,41.5,25.0,30.13,NW,304,2.0,10.0,53,0.00,,,0.01,12,weatherlink.com 1.10,2013-02-01 23:53:00,
2013-02-01 17:08:00,40.0,26.0,30.14,WNW,299,2.0,4.0,57,0.00,,,0.01,7,weatherlink.com 1.10,2013-02-02 00:08:00,
2013-02-01 17:23:00,40.2,25.0,30.15,NNW,340,2.0,9.0,55,0.00,,,0.01,0,weatherlink.com 1.10,2013-02-02 00:23:00,
2013-02-01 17:38:00,40.1,25.0,30.16,WNW,296,2.0,7.0,56,0.00,,,0.01,0,weatherlink.com 1.10,2013-02-02 00:38:00,
2013-02-01 17:53:00,39.6,27.0,30.17,WNW,297,3.0,9.0,60,0.00,,,0.01,0,weatherlink.com 1.10,2013-02-02 00:53:00,
2013-02-01 18:08:00,38.5,28.0,30.18,WSW,251,3.0,14.0,65,0.00,,,0.01,0,weatherlink.com 1.10,2013-02-02 01:08:00,
2013-02-01 18:23:00,38.2,27.0,30.18,NW,306,2.0,13.0,65,0.00,,,0.01,0,weatherlink.com 1.10,2013-02-02 01:23:00,
2013-02-01 18:38:00,38.1,27.0,30.18,West,269,3.0,11.0,65,0.00,,,0.01,0,weatherlink.com 1.10,2013-02-02 01:38:00,
2013-02-01 18:53:00,38.4,27.0,30.19,NW,315,2.0,6.0,63,0.00,,,0.01,0,weatherlink.com 1.10,2013-02-02 01:53:00,
2013-02-01 19:08:00,38.9,25.0,30.20,NW,309,1.0,6.0,57,0.00,,,0.01,0,weatherlink.com 1.10,2013-02-02 02:08:00,
2013-02-01 19:23:00,38.4,24.0,30.20,South,178,2.0,5.0,57,0.00,,,0.01,0,weatherlink.com 1.10,2013-02-02 02:23:00,
2013-02-01 19:38:00,38.6,24.0,30.20,NW,317,0.0,6.0,55,0.00,,,0.01,0,weatherlink.com 1.10,2013-02-02 02:38:00,
2013-02-01 19:53:00,38.1,23.0,30.20,NW,309,0.0,5.0,54,0.00,,,0.01,0,weatherlink.com 1.10,2013-02-02 02:53:00,
2013-02-01 20:08:00,37.0,22.0,30.20,ENE,72,0.0,2.0,56,0.00,,,0.01,0,weatherlink.com 1.10,2013-02-02 03:08:00,
2013-02-01 20:23:00,36.1,22.0,30.20,NE,51,0.0,1.0,58,0.00,,,0.01,0,weatherlink.com 1.10,2013-02-02 03:23:00,
2013-02-01 20:38:00,35.1,23.0,30.21,NE,50,0.0,1.0,61,0.00,,,0.01,0,weatherlink.com 1.10,2013-02-02 03:38:00,
2013-02-01 20:53:00,34.8,22.0,30.20,ENE,67,1.0,2.0,61,0.00,,,0.01,0,weatherlink.com 1.10,2013-02-02 03:53:00,
2013-02-01 21:08:00,35.2,22.0,30.20,NNE,22,0.0,2.0,60,0.00,,,0.01,0,weatherlink.com 1.10,2013-02-02 04:08:00,
2013-02-01 21:23:00,35.2,22.0,30.20,SW,221,0.0,3.0,58,0.00,,,0.01,0,weatherlink.com 1.10,2013-02-02 04:23:00,
2013-02-01 21:38:00,37.0,22.0,30.19,NW,318,1.0,7.0,54,0.00,,,0.01,0,weatherlink.com 1.10,2013-02-02 04:38:00,
2013-02-01 22:08:00,38.3,22.0,30.18,NW,323,1.0,7.0,53,0.00,,,0.01,0,weatherlink.com 1.10,2013-02-02 05:08:00,
2013-02-01 22:23:00,37.7,22.0,30.19,WNW,286,0.0,5.0,54,0.00,,,0.01,0,weatherlink.com 1.10,2013-02-02 05:23:00,
2013-02-01 22:38:00,36.3,22.0,30.20,NW,325,0.0,1.0,56,0.00,,,0.01,0,weatherlink.com 1.10,2013-02-02 05:38:00,
2013-02-01 22:53:00,34.2,21.0,30.20,East,87,0.0,0.0,58,0.00,,,0.01,0,weatherlink.com 1.10,2013-02-02 05:53:00,
2013-02-01 23:08:00,32.8,21.0,30.21,SSE,153,1.0,3.0,62,0.00,,,0.01,0,weatherlink.com 1.10,2013-02-02 06:08:00,
2013-02-01 23:23:00,32.3,21.0,30.22,SSE,166,1.0,3.0,63,0.00,,,0.01,0,weatherlink.com 1.10,2013-02-02 06:23:00,
2013-02-01 23:53:00,30.9,20.0,30.23,SE,146,0.0,3.0,64,0.00,,,0.01,0,weatherlink.com 1.10,2013-02-02 06:53:00,